Tilden, TX (78072)

6:03 PM CDT on July 24, 2014 (GMT -0500)
Huajuco Road (KTXCOTUL2) Elev 394 ft | 28.19 °N, 99.01 °W | Change Station

Current weather conditions updated 19 seconds ago

Overcast
Overcast
85.8 °F
Feels Like 90 °F
N
8.6
Wind Variable Wind from ESE
Gusts 11.0 mph

Tomorrow is forecast to be nearly the same temperature as today.

Today
High -- | Low -- °F
--% Chance of Precip.
Yesterday
High -- | Low -- °F
Precip. -- in
6:52 AM 8:29 PM
Waning Crescent, 4% visible
Pressure 29.90 in
Visibility 10.0 miles
Clouds Mostly Cloudy 12000 ft
Heat Index 90 °F
Dew Point 69 °F
Humidity 58%
Rainfall 0.00 in
Snow Depth Not available.
UV 2 out of 12
Pollen 4.20 out of 12
Air Quality Not available.
Flu Activity Not available.
METAR KCOT 242253Z AUTO 07011KT 10SM BKN120 34/19 A2992 RMK AO2 LTG DSNT E SLP125 T03390194 $

More Conditions Fewer Conditions

Pressure 29.90 in
Visibility 10.0 miles
Clouds Mostly Cloudy 12000 ft
Heat Index 90 °F
Dew Point 69 °F
Humidity 58%
Rainfall 0.00 in
Snow Depth Not available.
UV 2 out of 12
Pollen 4.20 out of 12
Air Quality Not available.
Flu Activity Not available.
METAR KCOT 242253Z AUTO 07011KT 10SM BKN120 34/19 A2992 RMK AO2 LTG DSNT E SLP125 T03390194 $

More Conditions Fewer Conditions

Nowcast | as of 4:47 PM CDT on July 24, 2014

Isolated to scattered showers and thunderstorms will continue moving across portions of south Texas. The larger storms will produce periods of moderate to heavy rainfall...with cloud to ground lightning strikes and occasional gusty winds.

×

10-Day Weather Forecast

Almanac

Astronomy

Jul. 24, 2014 Rise Set
Actual Time 6:52 AM CDT 8:29 PM CDT
Civil Twilight 6:26 AM CDT 8:55 PM CDT
Nautical Twilight 5:55 AM CDT 9:26 PM CDT
Astronomical Twilight 5:22 AM CDT 9:59 PM CDT
Moon 4:59 AM CDT 6:48 PM CDT
Length of Visible Light 14h 29m
Length of Day
13h 37m
Tomorrow will be 1m 5s shorter.
Waning Crescent, 4% of the Moon is Illuminated
Today
Waning Crescent
Jul 26
New
Aug 3
First Quarter
Aug 10
Full
Aug 17
Last Quarter

Today's Extremes

State Highs State Lows

Community

WunderPhotos

Upload Photos

1,737,158 photos uploaded!

Nearby

Snow Depth

Station Depth Elevation
No new snow has been reported.

Earthquake Activity

City Distance Mag. Time & Date
No recent earthquake activity has been reported nearby.
Minimum magnitude displayed is 2.5.

Coastal Water Temperatures

Place Temperature
No Stations Reporting

Nearby Weather Stations

Station Location Temp. Heat Index Dew Point Humidity Wind Precip. Elev Updated Type
Huajuco Road, Cotulla, TX 85.8 °F 90 °F 69 °F 58% ESE  at  8.6 mph 0.00 in / hr 394 ft 6:03 PM CDT Rapid Fire

Show More Stations Show Fewer Stations